sensor_id;sensor_type;location;lat;lon;timestamp;P1;durP1;ratioP1;P2;durP2;ratioP2
76336;SDS011;65157;50.082;18.178;2023-04-28T00:00:18;40.50;;;16.90;;
76336;SDS011;65157;50.082;18.178;2023-04-28T00:03:05;38.10;;;17.20;;
76336;SDS011;65157;50.082;18.178;2023-04-28T00:05:33;34.70;;;16.10;;
76336;SDS011;65157;50.082;18.178;2023-04-28T00:07:59;34.10;;;16.20;;
76336;SDS011;65157;50.082;18.178;2023-04-28T00:10:26;34.10;;;16.20;;
76336;SDS011;65157;50.082;18.178;2023-04-28T00:12:55;35.80;;;15.80;;
76336;SDS011;65157;50.082;18.178;2023-04-28T00:15:22;37.30;;;16.50;;
76336;SDS011;65157;50.082;18.178;2023-04-28T00:17:55;33.40;;;16.30;;
76336;SDS011;65157;50.082;18.178;2023-04-28T00:20:21;35.50;;;16.40;;
76336;SDS011;65157;50.082;18.178;2023-04-28T00:22:48;37.90;;;17.10;;
76336;SDS011;65157;50.082;18.178;2023-04-28T00:25:15;33.20;;;15.70;;
76336;SDS011;65157;50.082;18.178;2023-04-28T00:27:42;41.00;;;16.70;;
76336;SDS011;65157;50.082;18.178;2023-04-28T00:30:09;35.30;;;15.40;;
76336;SDS011;65157;50.082;18.178;2023-04-28T00:32:36;29.40;;;14.80;;
76336;SDS011;65157;50.082;18.178;2023-04-28T00:35:04;37.50;;;13.90;;
76336;SDS011;65157;50.082;18.178;2023-04-28T00:37:34;34.70;;;14.80;;
76336;SDS011;65157;50.082;18.178;2023-04-28T00:40:02;33.90;;;15.60;;
76336;SDS011;65157;50.082;18.178;2023-04-28T00:42:29;32.40;;;15.50;;
76336;SDS011;65157;50.082;18.178;2023-04-28T00:44:56;32.20;;;13.80;;
76336;SDS011;65157;50.082;18.178;2023-04-28T00:47:22;32.20;;;15.10;;
76336;SDS011;65157;50.082;18.178;2023-04-28T00:49:49;30.40;;;14.50;;
76336;SDS011;65157;50.082;18.178;2023-04-28T00:52:16;35.90;;;14.10;;
76336;SDS011;65157;50.082;18.178;2023-04-28T00:54:43;29.10;;;14.60;;
76336;SDS011;65157;50.082;18.178;2023-04-28T00:57:11;28.30;;;12.90;;
76336;SDS011;65157;50.082;18.178;2023-04-28T00:59:39;34.90;;;14.20;;
76336;SDS011;65157;50.082;18.178;2023-04-28T01:02:06;33.60;;;13.60;;
76336;SDS011;65157;50.082;18.178;2023-04-28T01:04:33;30.10;;;12.40;;
76336;SDS011;65157;50.082;18.178;2023-04-28T01:07:01;32.00;;;14.70;;
76336;SDS011;65157;50.082;18.178;2023-04-28T01:09:28;31.00;;;15.70;;
76336;SDS011;65157;50.082;18.178;2023-04-28T01:11:54;33.90;;;14.00;;
76336;SDS011;65157;50.082;18.178;2023-04-28T01:14:27;32.00;;;13.70;;
76336;SDS011;65157;50.082;18.178;2023-04-28T01:16:53;35.00;;;13.10;;
76336;SDS011;65157;50.082;18.178;2023-04-28T01:19:24;33.00;;;13.40;;
76336;SDS011;65157;50.082;18.178;2023-04-28T01:21:52;29.70;;;13.40;;
76336;SDS011;65157;50.082;18.178;2023-04-28T01:24:21;31.00;;;12.90;;
76336;SDS011;65157;50.082;18.178;2023-04-28T01:26:48;28.70;;;14.50;;
76336;SDS011;65157;50.082;18.178;2023-04-28T01:29:15;30.20;;;12.50;;
76336;SDS011;65157;50.082;18.178;2023-04-28T01:31:43;29.90;;;14.20;;
76336;SDS011;65157;50.082;18.178;2023-04-28T01:36:37;27.40;;;12.50;;
76336;SDS011;65157;50.082;18.178;2023-04-28T01:39:04;30.90;;;13.50;;
76336;SDS011;65157;50.082;18.178;2023-04-28T01:41:39;29.10;;;12.70;;
76336;SDS011;65157;50.082;18.178;2023-04-28T01:44:06;30.30;;;12.50;;
76336;SDS011;65157;50.082;18.178;2023-04-28T01:46:33;30.50;;;12.90;;
76336;SDS011;65157;50.082;18.178;2023-04-28T01:49:00;31.90;;;13.70;;
76336;SDS011;65157;50.082;18.178;2023-04-28T01:51:26;32.20;;;12.40;;
76336;SDS011;65157;50.082;18.178;2023-04-28T01:53:54;28.70;;;12.90;;
76336;SDS011;65157;50.082;18.178;2023-04-28T01:56:21;30.10;;;14.20;;
76336;SDS011;65157;50.082;18.178;2023-04-28T01:58:51;28.10;;;12.60;;
76336;SDS011;65157;50.082;18.178;2023-04-28T02:01:18;32.30;;;13.00;;
76336;SDS011;65157;50.082;18.178;2023-04-28T02:03:45;30.70;;;14.40;;
76336;SDS011;65157;50.082;18.178;2023-04-28T02:06:12;30.00;;;14.30;;
76336;SDS011;65157;50.082;18.178;2023-04-28T02:08:41;27.80;;;12.80;;
76336;SDS011;65157;50.082;18.178;2023-04-28T02:11:08;31.30;;;14.10;;
76336;SDS011;65157;50.082;18.178;2023-04-28T02:13:35;30.60;;;14.40;;
76336;SDS011;65157;50.082;18.178;2023-04-28T02:16:01;31.20;;;13.90;;
76336;SDS011;65157;50.082;18.178;2023-04-28T02:18:28;29.10;;;13.10;;
76336;SDS011;65157;50.082;18.178;2023-04-28T02:20:56;31.70;;;15.00;;
76336;SDS011;65157;50.082;18.178;2023-04-28T02:23:22;30.40;;;14.70;;
76336;SDS011;65157;50.082;18.178;2023-04-28T02:25:49;32.60;;;14.70;;
76336;SDS011;65157;50.082;18.178;2023-04-28T02:28:16;34.00;;;14.70;;
76336;SDS011;65157;50.082;18.178;2023-04-28T02:30:42;31.30;;;14.60;;
76336;SDS011;65157;50.082;18.178;2023-04-28T02:33:09;30.30;;;13.00;;
76336;SDS011;65157;50.082;18.178;2023-04-28T02:35:38;33.90;;;14.90;;
76336;SDS011;65157;50.082;18.178;2023-04-28T02:38:05;37.50;;;15.90;;
76336;SDS011;65157;50.082;18.178;2023-04-28T02:40:32;34.00;;;14.50;;
76336;SDS011;65157;50.082;18.178;2023-04-28T02:42:58;34.50;;;15.20;;
76336;SDS011;65157;50.082;18.178;2023-04-28T02:45:25;32.40;;;14.20;;
76336;SDS011;65157;50.082;18.178;2023-04-28T02:47:52;32.20;;;14.90;;
76336;SDS011;65157;50.082;18.178;2023-04-28T02:50:18;32.80;;;13.30;;
76336;SDS011;65157;50.082;18.178;2023-04-28T02:52:45;29.60;;;12.90;;
76336;SDS011;65157;50.082;18.178;2023-04-28T02:55:12;25.00;;;12.70;;
76336;SDS011;65157;50.082;18.178;2023-04-28T02:57:38;25.50;;;12.20;;
76336;SDS011;65157;50.082;18.178;2023-04-28T03:00:15;25.20;;;12.50;;
76336;SDS011;65157;50.082;18.178;2023-04-28T03:02:41;22.30;;;11.30;;
76336;SDS011;65157;50.082;18.178;2023-04-28T03:05:08;20.00;;;11.10;;
76336;SDS011;65157;50.082;18.178;2023-04-28T03:07:35;25.90;;;11.40;;
76336;SDS011;65157;50.082;18.178;2023-04-28T03:10:02;24.30;;;11.10;;
76336;SDS011;65157;50.082;18.178;2023-04-28T03:12:28;19.10;;;9.80;;
76336;SDS011;65157;50.082;18.178;2023-04-28T03:14:55;18.60;;;9.90;;
76336;SDS011;65157;50.082;18.178;2023-04-28T03:17:22;21.80;;;10.40;;
76336;SDS011;65157;50.082;18.178;2023-04-28T03:19:49;20.90;;;9.60;;
76336;SDS011;65157;50.082;18.178;2023-04-28T03:22:18;18.60;;;9.70;;
76336;SDS011;65157;50.082;18.178;2023-04-28T03:24:47;20.60;;;9.30;;
76336;SDS011;65157;50.082;18.178;2023-04-28T03:27:14;15.20;;;9.00;;
76336;SDS011;65157;50.082;18.178;2023-04-28T03:29:40;17.80;;;10.00;;
76336;SDS011;65157;50.082;18.178;2023-04-28T03:32:07;19.00;;;9.40;;
76336;SDS011;65157;50.082;18.178;2023-04-28T03:34:35;20.90;;;9.60;;
76336;SDS011;65157;50.082;18.178;2023-04-28T03:37:02;19.50;;;9.70;;
76336;SDS011;65157;50.082;18.178;2023-04-28T03:39:28;21.00;;;10.10;;
76336;SDS011;65157;50.082;18.178;2023-04-28T03:41:58;19.00;;;9.50;;
76336;SDS011;65157;50.082;18.178;2023-04-28T03:44:27;21.50;;;10.00;;
76336;SDS011;65157;50.082;18.178;2023-04-28T03:46:54;20.10;;;9.70;;
76336;SDS011;65157;50.082;18.178;2023-04-28T03:49:24;18.90;;;11.50;;
76336;SDS011;65157;50.082;18.178;2023-04-28T03:51:54;20.00;;;10.20;;
76336;SDS011;65157;50.082;18.178;2023-04-28T03:54:20;19.10;;;11.00;;
76336;SDS011;65157;50.082;18.178;2023-04-28T03:56:50;22.80;;;11.40;;
76336;SDS011;65157;50.082;18.178;2023-04-28T03:59:17;20.40;;;11.70;;
76336;SDS011;65157;50.082;18.178;2023-04-28T04:01:43;27.40;;;13.60;;
76336;SDS011;65157;50.082;18.178;2023-04-28T04:04:12;31.00;;;14.20;;
76336;SDS011;65157;50.082;18.178;2023-04-28T04:06:39;25.00;;;14.50;;
76336;SDS011;65157;50.082;18.178;2023-04-28T04:09:10;21.70;;;12.80;;
76336;SDS011;65157;50.082;18.178;2023-04-28T04:11:36;24.90;;;13.10;;
76336;SDS011;65157;50.082;18.178;2023-04-28T04:14:03;29.10;;;14.20;;
76336;SDS011;65157;50.082;18.178;2023-04-28T04:16:30;26.70;;;14.30;;
76336;SDS011;65157;50.082;18.178;2023-04-28T04:18:56;29.10;;;14.30;;
76336;SDS011;65157;50.082;18.178;2023-04-28T04:21:23;30.80;;;14.60;;
76336;SDS011;65157;50.082;18.178;2023-04-28T04:23:52;30.20;;;16.90;;
76336;SDS011;65157;50.082;18.178;2023-04-28T04:26:19;35.00;;;16.60;;
76336;SDS011;65157;50.082;18.178;2023-04-28T04:28:46;29.50;;;16.10;;
76336;SDS011;65157;50.082;18.178;2023-04-28T04:31:13;32.30;;;16.60;;
76336;SDS011;65157;50.082;18.178;2023-04-28T04:33:42;30.70;;;14.40;;
76336;SDS011;65157;50.082;18.178;2023-04-28T04:36:10;26.30;;;14.40;;
76336;SDS011;65157;50.082;18.178;2023-04-28T04:38:37;23.90;;;12.60;;
76336;SDS011;65157;50.082;18.178;2023-04-28T04:41:06;27.00;;;13.30;;
76336;SDS011;65157;50.082;18.178;2023-04-28T04:43:33;27.20;;;14.70;;
76336;SDS011;65157;50.082;18.178;2023-04-28T04:45:59;28.00;;;14.10;;
76336;SDS011;65157;50.082;18.178;2023-04-28T04:48:29;28.40;;;13.90;;
76336;SDS011;65157;50.082;18.178;2023-04-28T04:50:58;26.30;;;14.20;;
76336;SDS011;65157;50.082;18.178;2023-04-28T04:53:25;27.60;;;14.00;;
76336;SDS011;65157;50.082;18.178;2023-04-28T04:55:52;27.70;;;14.30;;
76336;SDS011;65157;50.082;18.178;2023-04-28T04:58:19;28.90;;;12.90;;
76336;SDS011;65157;50.082;18.178;2023-04-28T05:00:46;24.30;;;13.10;;
76336;SDS011;65157;50.082;18.178;2023-04-28T05:03:13;24.20;;;11.50;;
76336;SDS011;65157;50.082;18.178;2023-04-28T05:05:40;25.10;;;13.40;;
76336;SDS011;65157;50.082;18.178;2023-04-28T05:08:10;26.20;;;13.00;;
76336;SDS011;65157;50.082;18.178;2023-04-28T05:10:40;26.70;;;12.10;;
76336;SDS011;65157;50.082;18.178;2023-04-28T05:13:07;26.80;;;12.40;;
76336;SDS011;65157;50.082;18.178;2023-04-28T05:15:34;26.20;;;11.80;;
76336;SDS011;65157;50.082;18.178;2023-04-28T05:18:03;22.00;;;11.30;;
76336;SDS011;65157;50.082;18.178;2023-04-28T05:20:30;21.80;;;12.70;;
76336;SDS011;65157;50.082;18.178;2023-04-28T05:22:56;23.60;;;12.50;;
76336;SDS011;65157;50.082;18.178;2023-04-28T05:25:23;21.00;;;11.60;;
76336;SDS011;65157;50.082;18.178;2023-04-28T05:27:50;19.80;;;12.40;;
76336;SDS011;65157;50.082;18.178;2023-04-28T05:30:17;23.60;;;12.40;;
76336;SDS011;65157;50.082;18.178;2023-04-28T05:32:43;25.50;;;13.60;;
76336;SDS011;65157;50.082;18.178;2023-04-28T05:35:10;25.70;;;13.30;;
76336;SDS011;65157;50.082;18.178;2023-04-28T05:37:37;23.80;;;12.80;;
76336;SDS011;65157;50.082;18.178;2023-04-28T05:40:04;25.80;;;12.60;;
76336;SDS011;65157;50.082;18.178;2023-04-28T05:42:35;26.60;;;13.80;;
76336;SDS011;65157;50.082;18.178;2023-04-28T05:45:01;25.80;;;12.50;;
76336;SDS011;65157;50.082;18.178;2023-04-28T05:47:29;27.60;;;13.60;;
76336;SDS011;65157;50.082;18.178;2023-04-28T05:49:56;26.50;;;14.80;;
76336;SDS011;65157;50.082;18.178;2023-04-28T05:52:24;24.80;;;13.20;;
76336;SDS011;65157;50.082;18.178;2023-04-28T05:54:51;26.30;;;13.10;;
76336;SDS011;65157;50.082;18.178;2023-04-28T05:57:21;25.40;;;13.30;;
76336;SDS011;65157;50.082;18.178;2023-04-28T05:59:56;22.50;;;12.40;;
76336;SDS011;65157;50.082;18.178;2023-04-28T06:02:23;23.70;;;12.80;;
76336;SDS011;65157;50.082;18.178;2023-04-28T06:04:50;19.90;;;11.20;;
76336;SDS011;65157;50.082;18.178;2023-04-28T06:07:26;22.70;;;11.90;;
76336;SDS011;65157;50.082;18.178;2023-04-28T06:09:53;20.70;;;11.50;;
76336;SDS011;65157;50.082;18.178;2023-04-28T06:12:22;21.70;;;11.30;;
76336;SDS011;65157;50.082;18.178;2023-04-28T06:14:49;20.00;;;10.80;;
76336;SDS011;65157;50.082;18.178;2023-04-28T06:17:26;17.90;;;11.20;;
76336;SDS011;65157;50.082;18.178;2023-04-28T06:19:56;19.20;;;10.70;;
76336;SDS011;65157;50.082;18.178;2023-04-28T06:22:26;19.90;;;11.60;;
76336;SDS011;65157;50.082;18.178;2023-04-28T06:24:53;21.60;;;10.50;;
76336;SDS011;65157;50.082;18.178;2023-04-28T06:27:19;21.30;;;11.00;;
76336;SDS011;65157;50.082;18.178;2023-04-28T06:29:46;20.10;;;10.80;;
76336;SDS011;65157;50.082;18.178;2023-04-28T06:32:13;19.50;;;10.80;;
76336;SDS011;65157;50.082;18.178;2023-04-28T06:34:39;17.00;;;10.30;;
76336;SDS011;65157;50.082;18.178;2023-04-28T06:37:10;21.90;;;11.30;;
76336;SDS011;65157;50.082;18.178;2023-04-28T06:39:40;18.80;;;10.20;;
76336;SDS011;65157;50.082;18.178;2023-04-28T06:42:10;21.90;;;10.00;;
76336;SDS011;65157;50.082;18.178;2023-04-28T06:44:37;18.60;;;10.00;;
76336;SDS011;65157;50.082;18.178;2023-04-28T06:47:04;19.00;;;10.30;;
76336;SDS011;65157;50.082;18.178;2023-04-28T06:49:30;15.30;;;9.80;;
76336;SDS011;65157;50.082;18.178;2023-04-28T06:51:57;16.00;;;9.10;;
76336;SDS011;65157;50.082;18.178;2023-04-28T06:54:24;16.10;;;10.00;;
76336;SDS011;65157;50.082;18.178;2023-04-28T06:56:51;15.70;;;9.30;;
76336;SDS011;65157;50.082;18.178;2023-04-28T06:59:17;17.50;;;9.50;;
76336;SDS011;65157;50.082;18.178;2023-04-28T07:01:47;17.00;;;9.30;;
76336;SDS011;65157;50.082;18.178;2023-04-28T07:04:23;15.20;;;9.80;;
76336;SDS011;65157;50.082;18.178;2023-04-28T07:06:49;16.20;;;9.30;;
76336;SDS011;65157;50.082;18.178;2023-04-28T07:09:16;15.50;;;10.20;;
76336;SDS011;65157;50.082;18.178;2023-04-28T07:11:43;18.70;;;9.80;;
76336;SDS011;65157;50.082;18.178;2023-04-28T07:14:19;14.70;;;9.60;;
76336;SDS011;65157;50.082;18.178;2023-04-28T07:16:46;12.40;;;8.40;;
76336;SDS011;65157;50.082;18.178;2023-04-28T07:19:13;14.70;;;8.30;;
76336;SDS011;65157;50.082;18.178;2023-04-28T07:21:46;15.20;;;8.60;;
76336;SDS011;65157;50.082;18.178;2023-04-28T07:24:13;19.80;;;9.30;;
76336;SDS011;65157;50.082;18.178;2023-04-28T07:26:41;19.00;;;9.00;;
76336;SDS011;65157;50.082;18.178;2023-04-28T07:29:08;15.20;;;9.00;;
76336;SDS011;65157;50.082;18.178;2023-04-28T07:31:34;12.90;;;8.00;;
76336;SDS011;65157;50.082;18.178;2023-04-28T07:34:01;18.80;;;9.20;;
76336;SDS011;65157;50.082;18.178;2023-04-28T07:36:33;15.70;;;8.40;;
76336;SDS011;65157;50.082;18.178;2023-04-28T07:39:00;13.60;;;8.30;;
76336;SDS011;65157;50.082;18.178;2023-04-28T07:41:27;12.20;;;7.80;;
76336;SDS011;65157;50.082;18.178;2023-04-28T07:44:00;12.60;;;7.50;;
76336;SDS011;65157;50.082;18.178;2023-04-28T07:46:27;13.40;;;6.90;;
76336;SDS011;65157;50.082;18.178;2023-04-28T07:48:56;8.80;;;5.90;;
76336;SDS011;65157;50.082;18.178;2023-04-28T07:51:29;11.50;;;7.00;;
76336;SDS011;65157;50.082;18.178;2023-04-28T07:53:56;12.30;;;6.40;;
76336;SDS011;65157;50.082;18.178;2023-04-28T07:58:49;10.40;;;6.40;;
76336;SDS011;65157;50.082;18.178;2023-04-28T08:01:17;11.10;;;7.00;;
76336;SDS011;65157;50.082;18.178;2023-04-28T08:03:44;13.90;;;7.30;;
76336;SDS011;65157;50.082;18.178;2023-04-28T08:06:10;8.70;;;6.40;;
76336;SDS011;65157;50.082;18.178;2023-04-28T08:08:38;10.20;;;6.10;;
76336;SDS011;65157;50.082;18.178;2023-04-28T08:13:32;9.30;;;4.00;;
76336;SDS011;65157;50.082;18.178;2023-04-28T08:16:05;9.80;;;4.90;;
76336;SDS011;65157;50.082;18.178;2023-04-28T08:18:34;5.70;;;4.00;;
76336;SDS011;65157;50.082;18.178;2023-04-28T08:21:01;6.50;;;3.90;;
76336;SDS011;65157;50.082;18.178;2023-04-28T08:23:27;7.60;;;4.10;;
76336;SDS011;65157;50.082;18.178;2023-04-28T08:25:54;5.50;;;4.20;;
76336;SDS011;65157;50.082;18.178;2023-04-28T08:28:22;9.70;;;4.60;;
76336;SDS011;65157;50.082;18.178;2023-04-28T08:30:49;9.00;;;3.50;;
76336;SDS011;65157;50.082;18.178;2023-04-28T08:33:16;6.10;;;4.40;;
76336;SDS011;65157;50.082;18.178;2023-04-28T08:35:43;7.20;;;4.10;;
76336;SDS011;65157;50.082;18.178;2023-04-28T08:38:09;5.90;;;3.50;;
76336;SDS011;65157;50.082;18.178;2023-04-28T08:40:39;6.50;;;4.10;;
76336;SDS011;65157;50.082;18.178;2023-04-28T08:43:06;7.80;;;4.20;;
76336;SDS011;65157;50.082;18.178;2023-04-28T08:45:39;7.30;;;3.50;;
76336;SDS011;65157;50.082;18.178;2023-04-28T08:48:18;4.40;;;3.20;;
76336;SDS011;65157;50.082;18.178;2023-04-28T08:50:50;4.70;;;3.40;;
76336;SDS011;65157;50.082;18.178;2023-04-28T08:53:24;6.70;;;3.30;;
76336;SDS011;65157;50.082;18.178;2023-04-28T08:55:57;8.90;;;3.90;;
76336;SDS011;65157;50.082;18.178;2023-04-28T08:58:24;4.20;;;3.20;;
76336;SDS011;65157;50.082;18.178;2023-04-28T09:00:55;5.70;;;3.70;;
76336;SDS011;65157;50.082;18.178;2023-04-28T09:03:21;5.70;;;4.00;;
76336;SDS011;65157;50.082;18.178;2023-04-28T09:05:48;5.40;;;3.10;;
76336;SDS011;65157;50.082;18.178;2023-04-28T09:08:15;5.00;;;3.10;;
76336;SDS011;65157;50.082;18.178;2023-04-28T09:10:42;7.20;;;3.60;;
76336;SDS011;65157;50.082;18.178;2023-04-28T09:13:09;5.70;;;3.30;;
76336;SDS011;65157;50.082;18.178;2023-04-28T09:15:50;5.30;;;3.40;;
76336;SDS011;65157;50.082;18.178;2023-04-28T09:18:25;6.20;;;3.60;;
76336;SDS011;65157;50.082;18.178;2023-04-28T09:20:51;6.10;;;3.20;;
76336;SDS011;65157;50.082;18.178;2023-04-28T09:23:28;6.70;;;2.90;;
76336;SDS011;65157;50.082;18.178;2023-04-28T09:31:04;5.30;;;3.00;;
76336;SDS011;65157;50.082;18.178;2023-04-28T09:33:42;7.10;;;3.50;;
76336;SDS011;65157;50.082;18.178;2023-04-28T09:36:25;3.70;;;2.50;;
76336;SDS011;65157;50.082;18.178;2023-04-28T09:38:53;4.70;;;2.50;;
76336;SDS011;65157;50.082;18.178;2023-04-28T09:41:36;5.60;;;2.70;;
76336;SDS011;65157;50.082;18.178;2023-04-28T09:44:14;3.20;;;2.30;;
76336;SDS011;65157;50.082;18.178;2023-04-28T09:46:45;5.80;;;2.90;;
76336;SDS011;65157;50.082;18.178;2023-04-28T09:49:14;5.40;;;3.00;;
76336;SDS011;65157;50.082;18.178;2023-04-28T09:51:53;4.90;;;2.70;;
76336;SDS011;65157;50.082;18.178;2023-04-28T09:54:37;3.60;;;2.30;;
76336;SDS011;65157;50.082;18.178;2023-04-28T09:59:31;3.00;;;2.70;;
76336;SDS011;65157;50.082;18.178;2023-04-28T10:01:59;6.60;;;3.20;;
76336;SDS011;65157;50.082;18.178;2023-04-28T10:04:26;7.50;;;2.40;;
76336;SDS011;65157;50.082;18.178;2023-04-28T10:09:20;3.20;;;2.90;;
76336;SDS011;65157;50.082;18.178;2023-04-28T10:11:55;4.20;;;2.90;;
76336;SDS011;65157;50.082;18.178;2023-04-28T10:16:49;5.00;;;2.80;;
76336;SDS011;65157;50.082;18.178;2023-04-28T10:19:17;3.90;;;2.90;;
76336;SDS011;65157;50.082;18.178;2023-04-28T10:24:29;5.10;;;3.60;;
76336;SDS011;65157;50.082;18.178;2023-04-28T10:27:01;3.50;;;2.90;;
76336;SDS011;65157;50.082;18.178;2023-04-28T10:29:31;4.90;;;3.00;;
76336;SDS011;65157;50.082;18.178;2023-04-28T10:32:21;5.30;;;3.40;;
76336;SDS011;65157;50.082;18.178;2023-04-28T10:34:49;3.40;;;2.60;;
76336;SDS011;65157;50.082;18.178;2023-04-28T10:37:17;5.10;;;2.10;;
76336;SDS011;65157;50.082;18.178;2023-04-28T10:43:31;2.90;;;2.20;;
76336;SDS011;65157;50.082;18.178;2023-04-28T10:48:19;5.30;;;2.40;;
76336;SDS011;65157;50.082;18.178;2023-04-28T10:58:39;1.90;;;1.70;;
76336;SDS011;65157;50.082;18.178;2023-04-28T11:08:52;2.90;;;1.70;;
76336;SDS011;65157;50.082;18.178;2023-04-28T11:11:32;2.50;;;2.10;;
76336;SDS011;65157;50.082;18.178;2023-04-28T11:19:31;3.00;;;2.10;;
76336;SDS011;65157;50.082;18.178;2023-04-28T11:22:00;4.70;;;3.00;;
76336;SDS011;65157;50.082;18.178;2023-04-28T11:25:04;3.10;;;2.40;;
76336;SDS011;65157;50.082;18.178;2023-04-28T11:27:51;7.90;;;3.20;;
76336;SDS011;65157;50.082;18.178;2023-04-28T11:30:19;3.00;;;2.10;;
76336;SDS011;65157;50.082;18.178;2023-04-28T11:32:48;4.00;;;2.70;;
76336;SDS011;65157;50.082;18.178;2023-04-28T11:35:15;5.20;;;2.40;;
76336;SDS011;65157;50.082;18.178;2023-04-28T11:37:41;3.70;;;2.20;;
76336;SDS011;65157;50.082;18.178;2023-04-28T11:40:09;4.50;;;2.50;;
76336;SDS011;65157;50.082;18.178;2023-04-28T11:42:45;4.30;;;2.70;;
76336;SDS011;65157;50.082;18.178;2023-04-28T11:45:13;2.60;;;2.40;;
76336;SDS011;65157;50.082;18.178;2023-04-28T11:47:45;3.20;;;2.60;;
76336;SDS011;65157;50.082;18.178;2023-04-28T11:50:12;2.40;;;2.20;;
76336;SDS011;65157;50.082;18.178;2023-04-28T11:52:48;3.50;;;2.50;;
76336;SDS011;65157;50.082;18.178;2023-04-28T11:55:18;2.70;;;2.20;;
76336;SDS011;65157;50.082;18.178;2023-04-28T12:00:14;2.80;;;1.80;;
76336;SDS011;65157;50.082;18.178;2023-04-28T12:02:41;2.60;;;1.80;;
76336;SDS011;65157;50.082;18.178;2023-04-28T12:05:12;3.20;;;2.90;;
76336;SDS011;65157;50.082;18.178;2023-04-28T12:10:12;4.20;;;1.90;;
76336;SDS011;65157;50.082;18.178;2023-04-28T12:12:47;3.60;;;2.40;;
76336;SDS011;65157;50.082;18.178;2023-04-28T12:15:14;5.50;;;2.00;;
76336;SDS011;65157;50.082;18.178;2023-04-28T12:17:41;6.00;;;2.70;;
76336;SDS011;65157;50.082;18.178;2023-04-28T12:20:32;4.60;;;2.50;;
76336;SDS011;65157;50.082;18.178;2023-04-28T12:23:11;3.10;;;2.30;;
76336;SDS011;65157;50.082;18.178;2023-04-28T12:25:44;3.10;;;2.10;;
76336;SDS011;65157;50.082;18.178;2023-04-28T12:28:11;3.50;;;2.10;;
76336;SDS011;65157;50.082;18.178;2023-04-28T12:30:38;3.90;;;2.10;;
76336;SDS011;65157;50.082;18.178;2023-04-28T12:33:05;5.70;;;2.00;;
76336;SDS011;65157;50.082;18.178;2023-04-28T12:35:34;3.30;;;2.70;;
76336;SDS011;65157;50.082;18.178;2023-04-28T12:38:01;2.90;;;2.00;;
76336;SDS011;65157;50.082;18.178;2023-04-28T12:40:27;2.90;;;1.80;;
76336;SDS011;65157;50.082;18.178;2023-04-28T12:42:54;3.90;;;2.50;;
76336;SDS011;65157;50.082;18.178;2023-04-28T12:45:21;4.20;;;1.90;;
76336;SDS011;65157;50.082;18.178;2023-04-28T12:47:53;2.20;;;2.00;;
76336;SDS011;65157;50.082;18.178;2023-04-28T12:52:46;3.20;;;2.20;;
76336;SDS011;65157;50.082;18.178;2023-04-28T12:55:13;5.30;;;2.40;;
76336;SDS011;65157;50.082;18.178;2023-04-28T12:57:42;4.20;;;2.60;;
76336;SDS011;65157;50.082;18.178;2023-04-28T13:00:10;4.90;;;2.50;;
76336;SDS011;65157;50.082;18.178;2023-04-28T13:02:39;2.40;;;2.20;;
76336;SDS011;65157;50.082;18.178;2023-04-28T13:05:06;3.00;;;2.30;;
76336;SDS011;65157;50.082;18.178;2023-04-28T13:07:33;2.40;;;2.10;;
76336;SDS011;65157;50.082;18.178;2023-04-28T13:10:09;3.80;;;2.50;;
76336;SDS011;65157;50.082;18.178;2023-04-28T13:12:39;5.20;;;2.50;;
76336;SDS011;65157;50.082;18.178;2023-04-28T13:15:06;5.40;;;2.20;;
76336;SDS011;65157;50.082;18.178;2023-04-28T13:17:36;2.70;;;2.30;;
76336;SDS011;65157;50.082;18.178;2023-04-28T13:20:03;3.60;;;2.60;;
76336;SDS011;65157;50.082;18.178;2023-04-28T13:22:30;2.90;;;2.00;;
76336;SDS011;65157;50.082;18.178;2023-04-28T13:24:57;6.30;;;2.10;;
76336;SDS011;65157;50.082;18.178;2023-04-28T13:27:24;4.00;;;2.40;;
76336;SDS011;65157;50.082;18.178;2023-04-28T13:29:55;6.70;;;2.50;;
76336;SDS011;65157;50.082;18.178;2023-04-28T13:32:21;7.10;;;3.50;;
76336;SDS011;65157;50.082;18.178;2023-04-28T13:34:51;4.30;;;2.70;;
76336;SDS011;65157;50.082;18.178;2023-04-28T13:39:44;3.10;;;2.60;;
76336;SDS011;65157;50.082;18.178;2023-04-28T13:44:37;6.30;;;2.70;;
76336;SDS011;65157;50.082;18.178;2023-04-28T13:47:04;3.30;;;2.50;;
76336;SDS011;65157;50.082;18.178;2023-04-28T13:52:00;3.00;;;2.10;;
76336;SDS011;65157;50.082;18.178;2023-04-28T13:54:35;3.40;;;2.30;;
76336;SDS011;65157;50.082;18.178;2023-04-28T13:59:33;3.90;;;2.10;;
76336;SDS011;65157;50.082;18.178;2023-04-28T14:02:02;3.70;;;1.90;;
76336;SDS011;65157;50.082;18.178;2023-04-28T14:04:29;3.90;;;1.80;;
76336;SDS011;65157;50.082;18.178;2023-04-28T14:09:22;4.00;;;2.10;;
76336;SDS011;65157;50.082;18.178;2023-04-28T14:14:16;3.50;;;1.70;;
76336;SDS011;65157;50.082;18.178;2023-04-28T14:16:42;5.20;;;2.20;;
76336;SDS011;65157;50.082;18.178;2023-04-28T14:21:35;3.40;;;1.50;;
76336;SDS011;65157;50.082;18.178;2023-04-28T14:24:05;3.60;;;1.80;;
76336;SDS011;65157;50.082;18.178;2023-04-28T14:26:31;4.00;;;2.00;;
76336;SDS011;65157;50.082;18.178;2023-04-28T14:29:02;16.20;;;3.40;;
76336;SDS011;65157;50.082;18.178;2023-04-28T14:31:29;3.00;;;2.30;;
76336;SDS011;65157;50.082;18.178;2023-04-28T14:36:22;5.00;;;2.60;;
76336;SDS011;65157;50.082;18.178;2023-04-28T14:38:49;3.80;;;2.00;;
76336;SDS011;65157;50.082;18.178;2023-04-28T14:43:42;5.40;;;2.30;;
76336;SDS011;65157;50.082;18.178;2023-04-28T14:48:41;3.00;;;2.00;;
76336;SDS011;65157;50.082;18.178;2023-04-28T14:51:17;2.30;;;2.00;;
76336;SDS011;65157;50.082;18.178;2023-04-28T14:53:44;2.60;;;2.00;;
76336;SDS011;65157;50.082;18.178;2023-04-28T14:58:37;2.50;;;1.90;;
76336;SDS011;65157;50.082;18.178;2023-04-28T15:03:40;2.70;;;2.30;;
76336;SDS011;65157;50.082;18.178;2023-04-28T15:06:08;1.80;;;1.70;;
76336;SDS011;65157;50.082;18.178;2023-04-28T15:08:36;3.20;;;2.20;;
76336;SDS011;65157;50.082;18.178;2023-04-28T15:11:05;5.10;;;2.10;;
76336;SDS011;65157;50.082;18.178;2023-04-28T15:13:32;2.40;;;1.80;;
76336;SDS011;65157;50.082;18.178;2023-04-28T15:16:01;2.50;;;2.30;;
76336;SDS011;65157;50.082;18.178;2023-04-28T15:20:55;3.00;;;1.70;;
76336;SDS011;65157;50.082;18.178;2023-04-28T15:23:22;4.30;;;2.00;;
76336;SDS011;65157;50.082;18.178;2023-04-28T15:28:21;3.30;;;1.60;;
76336;SDS011;65157;50.082;18.178;2023-04-28T15:30:49;2.90;;;2.40;;
76336;SDS011;65157;50.082;18.178;2023-04-28T15:33:16;3.30;;;2.00;;
76336;SDS011;65157;50.082;18.178;2023-04-28T15:35:43;2.90;;;1.70;;
76336;SDS011;65157;50.082;18.178;2023-04-28T15:38:11;2.30;;;2.10;;
76336;SDS011;65157;50.082;18.178;2023-04-28T15:40:39;6.00;;;2.40;;
76336;SDS011;65157;50.082;18.178;2023-04-28T15:43:15;3.40;;;2.20;;
76336;SDS011;65157;50.082;18.178;2023-04-28T15:45:42;3.80;;;2.10;;
76336;SDS011;65157;50.082;18.178;2023-04-28T15:48:08;3.10;;;2.40;;
76336;SDS011;65157;50.082;18.178;2023-04-28T15:50:36;2.40;;;1.90;;
76336;SDS011;65157;50.082;18.178;2023-04-28T15:53:06;2.70;;;1.60;;
76336;SDS011;65157;50.082;18.178;2023-04-28T15:55:34;4.50;;;2.00;;
76336;SDS011;65157;50.082;18.178;2023-04-28T15:58:01;3.30;;;1.80;;
76336;SDS011;65157;50.082;18.178;2023-04-28T16:02:57;2.10;;;1.90;;